| time (UTC) | temp F | wind direction | speed MPH | gust MPH | rain 1hr in | rain 24hr in | rain mn in | humidity % | barometer mb |
| 20260507154541 | 58 | 236 | 13.0 | 25.0 | 0.00 | 0.00 | 0.00 | 59 | 1015.6 |
| 20260507153037 | 58 | 210 | 11.0 | 21.0 | 0.00 | 0.00 | 0.00 | 60 | 1015.8 |
| 20260507151533 | 57 | 207 | 6.0 | 17.0 | 0.00 | 0.00 | 0.00 | 62 | 1016.0 |
| 20260507150036 | 56 | 211 | 10.0 | 22.0 | 0.00 | 0.00 | 0.00 | 62 | 1016.1 |
| 20260507144523 | 55 | 240 | 9.0 | 17.0 | 0.00 | 0.00 | 0.00 | 65 | 1016.4 |
| 20260507143019 | 54 | 251 | 9.0 | 16.0 | 0.00 | 0.00 | 0.00 | 67 | 1016.7 |
| 20260507141516 | 53 | 237 | 6.0 | 18.0 | 0.00 | 0.00 | 0.00 | 69 | 1016.7 |
| 20260507140012 | 52 | 205 | 8.0 | 20.0 | 0.00 | 0.00 | 0.00 | 69 | 1016.8 |
| 20260507134507 | 51 | 210 | 6.0 | 11.0 | 0.00 | 0.00 | 0.00 | 75 | 1016.6 |
| 20260507133002 | 49 | 208 | 4.0 | 9.0 | 0.00 | 0.00 | 0.00 | 79 | 1016.9 |
| 20260507131602 | 47 | 231 | 5.0 | 10.0 | 0.00 | 0.00 | 0.00 | 81 | 1016.9 |
| 20260507130107 | 46 | 205 | 4.0 | 8.0 | 0.00 | 0.00 | 0.00 | 82 | 1017.0 |
| 20260507124601 | 45 | 200 | 5.0 | 10.0 | 0.00 | 0.00 | 0.00 | 84 | 1016.8 |
| 20260507123054 | 44 | 201 | 3.0 | 6.0 | 0.00 | 0.00 | 0.00 | 86 | 1016.8 |
| 20260507121551 | 43 | 204 | 4.0 | 6.0 | 0.00 | 0.00 | 0.00 | 87 | 1016.9 |
| 20260507120049 | 42 | 200 | 3.0 | 6.0 | 0.00 | 0.00 | 0.00 | 87 | 1016.9 |
| 20260507114559 | 42 | 193 | 3.0 | 5.0 | 0.00 | 0.00 | 0.00 | 87 | 1016.9 |
| 20260507113043 | 42 | 203 | 3.0 | 4.0 | 0.00 | 0.00 | 0.00 | 85 | 1016.9 |
| 20260507111542 | 43 | 201 | 2.0 | 5.0 | 0.00 | 0.00 | 0.00 | 84 | 1016.9 |
| 20260507110044 | 43 | 215 | 3.0 | 5.0 | 0.00 | 0.00 | 0.00 | 85 | 1017.0 |
| 20260507104539 | 42 | 224 | 2.0 | 4.0 | 0.00 | 0.00 | 0.00 | 86 | 1017.0 |
| 20260507103043 | 41 | 228 | 0.0 | 0.0 | 0.00 | 0.00 | 0.00 | 85 | 1017.1 |
| 20260507101537 | 42 | 207 | 0.0 | 0.0 | 0.00 | 0.00 | 0.00 | 84 | 1017.0 |
| 20260507100036 | 42 | 207 | 0.0 | 0.0 | 0.00 | 0.00 | 0.00 | 83 | 1017.0 |
| 20260507094535 | 43 | 207 | 0.0 | 0.0 | 0.00 | 0.00 | 0.00 | 82 | 1017.1 |
| 20260507093028 | 43 | 207 | 0.0 | 0.0 | 0.00 | 0.00 | 0.00 | 81 | 1017.2 |
| 20260507091531 | 44 | 207 | 1.0 | 3.0 | 0.00 | 0.00 | 0.00 | 80 | 1017.3 |
| 20260507090024 | 44 | 230 | 1.0 | 3.0 | 0.00 | 0.00 | 0.00 | 79 | 1017.4 |
| 20260507084522 | 44 | 205 | 3.0 | 4.0 | 0.00 | 0.00 | 0.00 | 78 | 1017.5 |
| 20260507083019 | 45 | 233 | 1.0 | 4.0 | 0.00 | 0.00 | 0.00 | 77 | 1017.6 |
| 20260507081516 | 45 | 217 | 2.0 | 5.0 | 0.00 | 0.00 | 0.00 | 76 | 1017.7 |
| 20260507080014 | 46 | 239 | 3.0 | 5.0 | 0.00 | 0.00 | 0.00 | 75 | 1017.7 |
| 20260507074511 | 46 | 230 | 2.0 | 5.0 | 0.00 | 0.00 | 0.00 | 75 | 1017.8 |
| 20260507073008 | 46 | 239 | 1.0 | 3.0 | 0.00 | 0.00 | 0.00 | 74 | 1017.8 |
| 20260507071506 | 46 | 240 | 0.0 | 3.0 | 0.00 | 0.00 | 0.00 | 73 | 1018.0 |
| 20260507070002 | 47 | 240 | 0.0 | 3.0 | 0.00 | 0.00 | 0.00 | 71 | 1018.1 |
| 20260507064600 | 48 | 241 | 2.0 | 3.0 | 0.00 | 0.00 | 0.00 | 70 | 1018.1 |
| 20260507063100 | 48 | 237 | 2.0 | 4.0 | 0.00 | 0.00 | 0.00 | 69 | 1018.3 |
| 20260507061555 | 49 | 229 | 2.0 | 3.0 | 0.00 | 0.00 | 0.00 | 68 | 1018.4 |
| 20260507060055 | 49 | 236 | 2.0 | 5.0 | 0.00 | 0.00 | 0.00 | 68 | 1018.6 |
| 20260507054551 | 49 | 231 | 1.0 | 3.0 | 0.00 | 0.00 | 0.00 | 68 | 1018.8 |
| 20260507053053 | 49 | 228 | 0.0 | 3.0 | 0.00 | 0.00 | 0.00 | 67 | 1018.8 |
| 20260507051548 | 50 | 232 | 1.0 | 3.0 | 0.00 | 0.00 | 0.00 | 65 | 1018.6 |
| 20260507050046 | 50 | 228 | 1.0 | 4.0 | 0.00 | 0.00 | 0.00 | 65 | 1018.5 |
| 20260507044558 | 50 | 233 | 2.0 | 5.0 | 0.00 | 0.00 | 0.00 | 64 | 1018.6 |
| 20260507043048 | 50 | 242 | 1.0 | 3.0 | 0.00 | 0.00 | 0.00 | 62 | 1018.6 |
| 20260507041546 | 50 | 231 | 0.0 | 3.0 | 0.00 | 0.00 | 0.00 | 62 | 1018.6 |
| 20260507040046 | 50 | 233 | 1.0 | 3.0 | 0.00 | 0.00 | 0.00 | 60 | 1018.6 |
| 20260507034545 | 50 | 233 | 1.0 | 4.0 | 0.00 | 0.00 | 0.00 | 59 | 1018.8 |
| 20260507033055 | 50 | 234 | 0.0 | 3.0 | 0.00 | 0.00 | 0.00 | 57 | 1018.7 |
| 20260507031555 | 49 | 236 | 0.0 | 3.0 | 0.00 | 0.00 | 0.00 | 62 | 1018.8 |
| 20260507030101 | 48 | 212 | 0.0 | 2.0 | 0.00 | 0.00 | 0.00 | 60 | 1018.6 |
| 20260507024601 | 49 | 303 | 0.0 | 0.0 | 0.00 | 0.00 | 0.00 | 58 | 1018.7 |
| 20260507023040 | 49 | 303 | 0.0 | 0.0 | 0.00 | 0.00 | 0.00 | 50 | 1018.4 |
| 20260507021549 | 50 | 303 | 0.0 | 0.0 | 0.00 | 0.00 | 0.00 | 50 | 1018.1 |
| 20260507020052 | 52 | 303 | 0.0 | 0.0 | 0.00 | 0.00 | 0.00 | 48 | 1018.2 |
| 20260507014549 | 52 | 303 | 0.0 | 0.0 | 0.00 | 0.00 | 0.00 | 46 | 1017.9 |
| 20260507013041 | 54 | 303 | 0.0 | 0.0 | 0.00 | 0.00 | 0.00 | 45 | 1017.9 |
| 20260507011545 | 56 | 350 | 0.0 | 0.0 | 0.00 | 0.00 | 0.00 | 43 | 1017.8 |
| 20260507010043 | 57 | 303 | 0.0 | 0.0 | 0.00 | 0.00 | 0.00 | 40 | 1017.8 |
| 20260507004536 | 59 | 291 | 2.0 | 4.0 | 0.00 | 0.00 | 0.00 | 35 | 1017.9 |
| 20260507003036 | 59 | 323 | 3.0 | 8.0 | 0.00 | 0.00 | 0.00 | 35 | 1017.7 |
| 20260507001536 | 60 | 294 | 2.0 | 4.0 | 0.00 | 0.00 | 0.00 | 34 | 1017.9 |
| 20260507000035 | 59 | 304 | 2.0 | 6.0 | 0.00 | 0.00 | 0.00 | 35 | 1018.0 |
| 20260506234545 | 60 | 355 | 6.0 | 12.0 | 0.00 | 0.00 | 0.00 | 34 | 1017.9 |
| 20260506233037 | 60 | 7 | 4.0 | 9.0 | 0.00 | 0.00 | 0.00 | 33 | 1017.9 |
| 20260506231534 | 61 | 276 | 3.0 | 9.0 | 0.00 | 0.00 | 0.00 | 35 | 1017.9 |
| 20260506230030 | 61 | 317 | 3.0 | 9.0 | 0.00 | 0.00 | 0.00 | 34 | 1017.9 |
| 20260506224529 | 61 | 302 | 7.0 | 13.0 | 0.00 | 0.00 | 0.00 | 35 | 1018.0 |
| 20260506223027 | 61 | 333 | 3.0 | 9.0 | 0.00 | 0.00 | 0.00 | 36 | 1018.0 |
| 20260506221524 | 60 | 328 | 3.0 | 8.0 | 0.00 | 0.00 | 0.00 | 36 | 1018.2 |
| 20260506220023 | 60 | 317 | 3.0 | 6.0 | 0.00 | 0.00 | 0.00 | 36 | 1018.2 |
| 20260506214522 | 60 | 226 | 4.0 | 11.0 | 0.00 | 0.00 | 0.00 | 35 | 1018.3 |
| 20260506213020 | 59 | 282 | 2.0 | 9.0 | 0.00 | 0.00 | 0.00 | 40 | 1018.4 |
| 20260506211522 | 58 | 247 | 3.0 | 9.0 | 0.00 | 0.00 | 0.00 | 39 | 1019.0 |
| 20260506210019 | 59 | 263 | 2.0 | 9.0 | 0.00 | 0.00 | 0.00 | 39 | 1019.1 |
| 20260506204517 | 58 | 230 | 0.0 | 8.0 | 0.00 | 0.00 | 0.00 | 37 | 1019.3 |
| 20260506203016 | 58 | 292 | 4.0 | 10.0 | 0.00 | 0.00 | 0.00 | 36 | 1019.5 |
| 20260506201514 | 58 | 88 | 3.0 | 6.0 | 0.00 | 0.00 | 0.00 | 38 | 1019.8 |
| 20260506200013 | 57 | 328 | 7.0 | 12.0 | 0.00 | 0.00 | 0.00 | 37 | 1020.0 |
| 20260506194516 | 57 | 4 | 5.0 | 12.0 | 0.00 | 0.00 | 0.00 | 35 | 1020.0 |
| 20260506193014 | 58 | 345 | 5.0 | 16.0 | 0.00 | 0.00 | 0.00 | 37 | 1019.9 |
| 20260506191511 | 57 | 317 | 4.0 | 9.0 | 0.00 | 0.00 | 0.00 | 36 | 1019.9 |
| 20260506190010 | 57 | 334 | 2.0 | 8.0 | 0.00 | 0.00 | 0.00 | 39 | 1019.9 |
| 20260506184508 | 57 | 350 | 1.0 | 10.0 | 0.00 | 0.00 | 0.00 | 37 | 1019.9 |
| 20260506183011 | 56 | 359 | 5.0 | 12.0 | 0.00 | 0.00 | 0.00 | 37 | 1020.2 |
| 20260506181504 | 56 | 332 | 2.0 | 8.0 | 0.00 | 0.00 | 0.00 | 40 | 1020.1 |
| 20260506180005 | 55 | 306 | 4.0 | 10.0 | 0.00 | 0.00 | 0.00 | 39 | 1020.3 |
| 20260506174501 | 55 | 345 | 4.0 | 10.0 | 0.00 | 0.00 | 0.00 | 40 | 1020.6 |
| 20260506173130 | 54 | 314 | 2.0 | 10.0 | 0.00 | 0.00 | 0.00 | 37 | 1020.7 |
| 20260506171607 | 54 | 291 | 2.0 | 9.0 | 0.00 | 0.00 | 0.00 | 39 | 1020.9 |
| 20260506170055 | 54 | 278 | 1.0 | 8.0 | 0.00 | 0.00 | 0.00 | 42 | 1020.8 |
| 20260506164556 | 53 | 345 | 4.0 | 9.0 | 0.00 | 0.00 | 0.00 | 50 | 1020.9 |
| 20260506163053 | 53 | 345 | 5.0 | 10.0 | 0.00 | 0.00 | 0.00 | 48 | 1020.9 |
| 20260506161549 | 52 | 340 | 1.0 | 9.0 | 0.00 | 0.00 | 0.00 | 51 | 1020.9 |
| 20260506160045 | 52 | 323 | 3.0 | 6.0 | 0.00 | 0.02 | 0.00 | 50 | 1020.8 |